Craig Municipal Airport
KCRG : now visible

Airfield :











YOU CAN JOIN US ON...

 
LOGIN :

Register | Disclaimer

   EN    FR    IT 

 









Legend :    VFR   Marginal VFR   IFR   Intensive IFR   Very Intensive IFR
Visi :
Ceiling :
>= 8 km
>= 3000ft
5 to 8 km
1000 to 3000 ft
1500m to 5 km
500 to 1000 ft
800 to 1500m
200 to 500 ft
< 800m
< 200 ft
Symbols :   Thunderstorms  Fog  Heavy snow  Heavy precipitations  Wind > 20 kt






- Airport Elevation : 41 ft


KCRG - Craig Municipal

CURRENT METAR :
  • 290053Z 14009KT 10SM FEW013 27/24 A3000 RMK AO2 SLP157 T02670239

EXPIRED METARs :
  • 282353Z 15009KT 10SM CLR 27/24 A3000 RMK AO2 SLP158 T02670239 10300 20267 55000
  • 282302Z 13007KT 10SM SCT016 27/24 A2999 RMK AO2 T02720239
  • 282253Z 13008KT 10SM BKN016 27/24 A2999 RMK AO2 SLP156 T02720239
  • 282223Z 13010KT 10SM BKN016 27/24 A2999 RMK AO2 T02720239

TAF KCRG
Valid from the 29 at 00:00 until the 30 at 00:00 UTC


282320Z 2900/2924 13009KT P6SM SCT025 BKN250
FM291200 19013G20KT P6SM SCT040 OVC120
FM291700 22015G25KT P6SM VCTS BKN040CB
FM292100 23012G20KT P6SM VCSH BKN060
KZJX FIR / North America



MET'MAP, your aeronautical weather chart ! - Copyright ORBIFLY December 2007 - Disclaimer

ORBIFLY MET'MAP TEAM :

Programming & Development : Alexandra Zaïnal
Concept & original design : Baudouin d'Aumeries
Assistance for programming : Marc-Olivier Méhu
Technical & hardware support : Manuel Goepfert

Contact : metmap@orbifly.com




SOURCES & CREDITS :

   NOAA       Earth
Advisory